Castro Valley, CA (94546)

2:36 PM PDT on March 24, 2017 (GMT -0700)
Castro Valley | | Change Station

Elev 367 ft 37.72 °N, 122.08 °W | Updated 4 seconds ago

Mostly Cloudy
Mostly Cloudy
52.5 °F
Feels Like 52.5 °F
N
2.7
Wind Variable Wind from SSW
Gusts 8.1 mph

Today
High -- | Low -- °F
--% Chance of Precip.
Yesterday
High -- | Low -- °F
Precip. -- in
Pressure 30.19 in
Visibility 2.5 miles
Clouds Scattered Clouds 2300 ft
Mostly Cloudy 3100 ft
Overcast 4600 ft
Dew Point 34 °F
Humidity 50%
Rainfall 0.29 in
Snow Depth Not available.
7:05 AM 7:24 PM
Waning Crescent, 13% visible
METAR KHWD 242054Z 15015G19KT 2 1/2SM -RA SCT023 BKN031 OVC046 13/09 A3016 RMK AO2 RAE16B48 SLP223 P0000 60015 T01330094 58001
Pressure 30.19 in
Visibility 2.5 miles
Clouds Scattered Clouds 2300 ft
Mostly Cloudy 3100 ft
Overcast 4600 ft
Dew Point 34 °F
Humidity 50%
Rainfall 0.29 in
Snow Depth Not available.
7:05 AM 7:24 PM
Waning Crescent, 13% visible
METAR KHWD 242054Z 15015G19KT 2 1/2SM -RA SCT023 BKN031 OVC046 13/09 A3016 RMK AO2 RAE16B48 SLP223 P0000 60015 T01330094 58001

Get Severe Weather Alerts

Thanks for signing up!

Be on the lookout for a verification email in your inbox.

You'll start receiving the daily forecast at 8 AM.

×

10-Day Weather Forecast

Almanac

Astronomy

Mar. 24, 2017 Rise Set
Actual Time
Civil Twilight
Nautical Twilight
Astronomical Twilight
Moon
Length of Visible Light
Length of Day
Tomorrow will be .
, % of the Moon is Illuminated

Today's Extremes

State Highs State Lows

Community

WunderPhotos

Upload Photos

1,962,540 photos uploaded!

WunderBlog® & News

Nearby

Air Quality

  Air Quality AQ Index Pollutant
Not available.

Snow Depth

Station Depth Elevation

Earthquake Activity

City Distance Mag. Time & Date
Minimum magnitude displayed is 2.5.

Earthquake Activity

City Distance Mag. Time & Date
Minimum magnitude displayed is 2.5.

Coastal Water Temperatures

Place Temperature

Stations

Nearby Weather Stations

Station Location Temp. Windchill Dew Point Humidity Wind Precip. Elev Updated Type
                   

Watches & Warnings

There are currently no watches in effect.